createdAt,value
2022-08-22T00:03:01.919Z,100.00
2022-08-22T00:03:16.022Z,100.00
2022-08-22T00:06:16.094Z,100.00
2022-08-22T00:09:19.476Z,100.00
2022-08-22T00:12:16.564Z,100.00
2022-08-22T00:15:42.323Z,100.00
2022-08-22T00:18:31.871Z,100.00
2022-08-22T00:21:27.388Z,100.00
2022-08-22T00:24:26.696Z,100.00
2022-08-22T00:27:19.510Z,100.00
2022-08-22T00:30:13.764Z,100.00
2022-08-22T00:33:06.511Z,100.00
2022-08-22T00:36:07.175Z,100.00
2022-08-22T00:39:07.969Z,100.00
2022-08-22T00:42:48.307Z,100.00
2022-08-22T00:45:55.010Z,100.00
2022-08-22T00:49:06.424Z,100.00
2022-08-22T00:52:30.262Z,100.00
2022-08-22T00:55:37.570Z,100.00
2022-08-22T00:59:18.033Z,100.00
2022-08-22T01:02:31.947Z,100.00
2022-08-22T01:05:36.353Z,100.00
2022-08-22T01:08:39.647Z,100.00
2022-08-22T01:12:03.534Z,100.00
2022-08-22T01:14:56.989Z,100.00
2022-08-22T01:18:18.272Z,100.00
2022-08-22T01:21:47.764Z,100.00
2022-08-22T01:25:21.905Z,100.00
2022-08-22T01:28:57.683Z,100.00
2022-08-22T01:32:29.561Z,100.00
2022-08-22T01:35:38.085Z,100.00
2022-08-22T01:38:51.900Z,100.00
2022-08-22T01:41:56.520Z,100.00
2022-08-22T01:45:04.030Z,100.00
2022-08-22T01:47:57.045Z,100.00
2022-08-22T01:50:52.396Z,100.00
2022-08-22T01:53:45.909Z,100.00
2022-08-22T01:56:37.207Z,100.00
2022-08-22T01:59:34.174Z,100.00
2022-08-22T02:02:41.215Z,100.00
2022-08-22T02:05:37.298Z,100.00
2022-08-22T02:08:39.050Z,100.00
2022-08-22T02:11:40.070Z,100.00
2022-08-22T02:14:41.857Z,100.00
2022-08-22T02:17:35.177Z,100.00
2022-08-22T02:20:27.522Z,100.00
2022-08-22T02:23:23.649Z,100.00
2022-08-22T02:26:18.467Z,100.00
2022-08-22T02:29:13.060Z,100.00
2022-08-22T02:32:07.953Z,100.00
2022-08-22T02:35:06.955Z,100.00
2022-08-22T02:38:09.293Z,100.00
2022-08-22T02:41:07.173Z,100.00
2022-08-22T02:44:03.080Z,100.00
2022-08-22T02:46:57.209Z,100.00
2022-08-22T02:49:56.308Z,100.00
2022-08-22T02:52:55.806Z,100.00
2022-08-22T02:55:51.629Z,100.00
2022-08-22T02:58:46.635Z,100.00
2022-08-22T03:01:40.708Z,100.00
2022-08-22T03:04:48.514Z,100.00
2022-08-22T03:07:42.417Z,100.00
2022-08-22T03:10:38.182Z,100.00
2022-08-22T03:13:37.155Z,100.00
2022-08-22T03:16:34.297Z,100.00
2022-08-22T03:19:31.438Z,100.00
2022-08-22T03:22:26.183Z,100.00
2022-08-22T03:25:27.138Z,100.00
2022-08-22T03:28:21.587Z,100.00
2022-08-22T03:31:14.732Z,100.00
2022-08-22T03:34:22.607Z,100.00
2022-08-22T03:37:20.337Z,100.00
2022-08-22T03:40:23.732Z,100.00
2022-08-22T03:43:35.832Z,100.00
2022-08-22T03:46:41.135Z,100.00
2022-08-22T03:49:59.896Z,100.00
2022-08-22T03:53:19.982Z,100.00
2022-08-22T03:56:54.076Z,100.00
2022-08-22T04:00:28.910Z,100.00
2022-08-22T04:03:53.769Z,100.00
2022-08-22T04:07:08.869Z,100.00
2022-08-22T04:10:38.062Z,100.00
2022-08-22T04:14:01.055Z,100.00
2022-08-22T04:17:07.533Z,100.00
2022-08-22T04:20:16.732Z,100.00
2022-08-22T04:23:41.267Z,100.00
2022-08-22T04:26:38.049Z,100.00
2022-08-22T04:29:33.154Z,100.00
2022-08-22T04:32:27.852Z,100.00
2022-08-22T04:35:27.450Z,100.00
2022-08-22T04:38:22.414Z,100.00
2022-08-22T04:41:15.118Z,100.00
2022-08-22T04:44:11.708Z,100.00
2022-08-22T04:47:09.466Z,100.00
2022-08-22T04:50:03.584Z,100.00
2022-08-22T04:53:09.078Z,100.00
2022-08-22T04:56:07.518Z,100.00
2022-08-22T04:58:59.348Z,100.00
2022-08-22T05:01:54.062Z,100.00
2022-08-22T05:04:49.162Z,100.00
2022-08-22T05:07:41.608Z,100.00
2022-08-22T05:10:36.753Z,100.00
2022-08-22T05:13:30.258Z,100.00
2022-08-22T05:16:24.540Z,100.00
2022-08-22T05:19:23.030Z,100.00
2022-08-22T05:22:21.824Z,100.00
2022-08-22T05:25:13.233Z,100.00
2022-08-22T05:28:10.774Z,100.00
2022-08-22T05:31:00.785Z,100.00
2022-08-22T05:33:53.132Z,100.00
2022-08-22T05:36:46.353Z,100.00
2022-08-22T05:39:38.788Z,100.00
2022-08-22T05:42:30.372Z,100.00
2022-08-22T05:45:20.933Z,100.00
2022-08-22T05:48:17.399Z,100.00
2022-08-22T05:51:16.238Z,100.00
2022-08-22T05:54:13.418Z,100.00
2022-08-22T05:57:10.579Z,100.00
2022-08-22T06:00:06.773Z,100.00
2022-08-22T06:03:12.228Z,100.00
2022-08-22T06:06:08.073Z,100.00
2022-08-22T06:09:04.118Z,100.00
2022-08-22T06:11:59.011Z,100.00
2022-08-22T06:14:56.563Z,100.00
2022-08-22T06:17:49.427Z,100.00
2022-08-22T06:20:40.901Z,100.00
2022-08-22T06:23:31.025Z,100.00
2022-08-22T06:26:21.476Z,100.00
2022-08-22T06:29:11.343Z,100.00
2022-08-22T06:32:03.629Z,100.00
2022-08-22T06:34:56.281Z,100.00
2022-08-22T06:37:47.114Z,100.00
2022-08-22T06:40:35.982Z,100.00
2022-08-22T06:43:26.050Z,100.00
2022-08-22T06:46:17.371Z,100.00
2022-08-22T06:49:09.425Z,100.00
2022-08-22T06:52:01.654Z,100.00
2022-08-22T06:54:53.464Z,100.00
2022-08-22T06:57:47.270Z,100.00
2022-08-22T07:00:37.166Z,100.00
2022-08-22T07:03:32.004Z,100.00
2022-08-22T07:06:31.647Z,100.00
2022-08-22T07:09:24.982Z,100.00
2022-08-22T07:12:18.466Z,100.00
2022-08-22T07:15:13.455Z,100.00
2022-08-22T07:18:05.497Z,100.00
2022-08-22T07:20:56.318Z,100.00
2022-08-22T07:23:48.608Z,100.00
2022-08-22T07:26:57.228Z,100.00
2022-08-22T07:29:54.030Z,100.00
2022-08-22T07:32:53.100Z,100.00
2022-08-22T07:35:53.137Z,100.00
2022-08-22T07:38:46.605Z,100.00
2022-08-22T07:41:59.686Z,100.00
2022-08-22T07:45:02.990Z,100.00
2022-08-22T07:48:04.058Z,100.00
2022-08-22T07:51:01.603Z,100.00
2022-08-22T07:54:00.725Z,100.00
2022-08-22T07:56:57.871Z,100.00
2022-08-22T07:59:49.382Z,100.00
2022-08-22T08:02:39.190Z,100.00
2022-08-22T08:05:32.290Z,100.00
2022-08-22T08:08:26.680Z,100.00
2022-08-22T08:11:19.010Z,100.00
2022-08-22T08:14:13.666Z,100.00
2022-08-22T08:17:06.105Z,100.00
2022-08-22T08:19:56.310Z,100.00
2022-08-22T08:22:47.896Z,99.02
2022-08-22T08:25:58.742Z,99.16
2022-08-22T08:28:49.565Z,97.77
2022-08-22T08:31:43.222Z,98.27
2022-08-22T08:34:34.718Z,100.00
2022-08-22T08:37:29.270Z,100.00
2022-08-22T08:40:28.150Z,100.00
2022-08-22T08:43:34.487Z,100.00
2022-08-22T08:46:58.680Z,100.00
2022-08-22T08:50:05.658Z,100.00
2022-08-22T08:53:18.264Z,100.00
2022-08-22T08:56:19.762Z,100.00
2022-08-22T08:59:21.786Z,100.00
2022-08-22T09:02:25.088Z,100.00
2022-08-22T09:05:59.325Z,100.00
2022-08-22T09:09:13.984Z,97.00
2022-08-22T09:12:38.428Z,100.00
2022-08-22T09:16:05.596Z,99.24
2022-08-22T09:19:24.455Z,97.88
2022-08-22T09:22:50.846Z,97.25
2022-08-22T09:25:46.350Z,98.00
2022-08-22T09:28:41.048Z,96.98
2022-08-22T09:31:47.818Z,96.29
2022-08-22T09:34:56.838Z,98.77
2022-08-22T09:38:19.593Z,95.27
2022-08-22T09:41:27.268Z,95.05
2022-08-22T09:44:24.176Z,95.16
2022-08-22T09:47:24.521Z,95.67
2022-08-22T09:50:17.696Z,97.08
2022-08-22T09:53:15.424Z,97.47
2022-08-22T09:56:11.710Z,98.19
2022-08-22T09:59:09.954Z,98.54
2022-08-22T10:02:06.035Z,99.45
2022-08-22T10:05:02.094Z,99.66
2022-08-22T10:08:03.718Z,100.00
2022-08-22T10:11:08.733Z,100.00
2022-08-22T10:14:03.588Z,100.00
2022-08-22T10:17:03.717Z,100.00
2022-08-22T10:19:58.188Z,100.00
2022-08-22T10:22:57.362Z,100.00
2022-08-22T10:25:51.079Z,100.00
2022-08-22T10:28:48.037Z,100.00
2022-08-22T10:31:58.641Z,100.00
2022-08-22T10:34:53.031Z,100.00
2022-08-22T10:37:52.847Z,100.00
2022-08-22T10:40:50.051Z,100.00
2022-08-22T10:43:47.553Z,100.00
2022-08-22T10:46:52.567Z,100.00
2022-08-22T10:49:51.092Z,100.00
2022-08-22T10:52:47.452Z,100.00
2022-08-22T10:55:41.700Z,100.00
2022-08-22T10:58:35.710Z,99.67
2022-08-22T11:01:37.190Z,100.00
2022-08-22T11:04:53.831Z,100.00
2022-08-22T11:07:50.184Z,100.00
2022-08-22T11:10:52.338Z,100.00
2022-08-22T11:13:58.343Z,100.00
2022-08-22T11:16:58.092Z,100.00
2022-08-22T11:20:03.549Z,100.00
2022-08-22T11:23:12.457Z,100.00
2022-08-22T11:26:13.441Z,100.00
2022-08-22T11:29:14.201Z,100.00
2022-08-22T11:32:14.782Z,100.00
2022-08-22T11:35:09.333Z,100.00
2022-08-22T11:38:03.716Z,100.00
2022-08-22T11:41:02.038Z,100.00
2022-08-22T11:44:00.649Z,100.00
2022-08-22T11:46:55.169Z,100.00
2022-08-22T11:49:57.556Z,100.00
2022-08-22T11:52:58.166Z,100.00
2022-08-22T11:55:57.720Z,97.16
2022-08-22T11:58:57.197Z,94.34
2022-08-22T12:01:52.741Z,92.91
2022-08-22T12:04:45.184Z,92.71
2022-08-22T12:07:40.468Z,90.44
2022-08-22T12:10:33.891Z,83.20
2022-08-22T12:13:36.835Z,79.52
2022-08-22T12:16:33.473Z,83.19
2022-08-22T12:19:32.944Z,79.77
2022-08-22T12:22:49.988Z,78.42
2022-08-22T12:26:10.917Z,72.46
2022-08-22T12:29:16.806Z,72.47
2022-08-22T12:32:34.138Z,76.71
2022-08-22T12:35:38.045Z,77.36
2022-08-22T12:38:45.189Z,74.88
2022-08-22T12:42:07.106Z,74.92
2022-08-22T12:45:23.370Z,70.75
2022-08-22T12:48:26.867Z,67.70
2022-08-22T12:51:29.577Z,68.58
2022-08-22T12:54:44.677Z,73.01
2022-08-22T12:57:42.991Z,73.25
2022-08-22T13:00:35.716Z,71.36
2022-08-22T13:03:33.919Z,70.17
2022-08-22T13:06:50.311Z,74.00
2022-08-22T13:09:47.721Z,69.94
2022-08-22T13:12:45.129Z,76.78
2022-08-22T13:15:37.993Z,74.73
2022-08-22T13:18:37.408Z,75.22
2022-08-22T13:21:31.921Z,76.17
2022-08-22T13:24:40.254Z,73.18
2022-08-22T13:27:51.146Z,68.08
2022-08-22T13:30:41.920Z,67.96
2022-08-22T13:33:35.738Z,73.82
2022-08-22T13:36:26.831Z,72.62
2022-08-22T13:39:27.163Z,74.33
2022-08-22T13:42:30.396Z,75.51
2022-08-22T13:45:25.146Z,66.22
2022-08-22T13:48:16.655Z,68.61
2022-08-22T13:51:10.713Z,70.24
2022-08-22T13:54:10.911Z,74.46
2022-08-22T13:57:07.399Z,67.42
2022-08-22T14:00:09.892Z,71.35
2022-08-22T14:03:08.223Z,69.18
2022-08-22T14:06:32.846Z,65.60
2022-08-22T14:09:15.286Z,65.07
2022-08-22T14:12:12.024Z,63.84
2022-08-22T14:15:03.494Z,63.21
2022-08-22T14:17:56.868Z,63.13
2022-08-22T14:20:49.637Z,61.34
2022-08-22T14:23:38.506Z,60.80
2022-08-22T14:26:33.236Z,60.11
2022-08-22T14:29:28.029Z,59.48
2022-08-22T14:32:47.550Z,60.55
2022-08-22T14:35:42.053Z,60.70
2022-08-22T14:38:38.030Z,60.88
2022-08-22T14:41:52.771Z,61.79
2022-08-22T14:44:50.017Z,62.35
2022-08-22T14:47:55.061Z,62.35
2022-08-22T14:50:59.826Z,63.86
2022-08-22T14:53:50.670Z,64.26
2022-08-22T14:56:39.575Z,63.94
2022-08-22T14:59:39.676Z,64.72
2022-08-22T15:02:31.535Z,66.32
2022-08-22T15:05:24.330Z,65.22
2022-08-22T15:08:27.688Z,66.62
2022-08-22T15:11:25.708Z,66.77
2022-08-22T15:14:24.132Z,67.14
2022-08-22T15:17:13.087Z,67.33
2022-08-22T15:20:27.957Z,68.32
2022-08-22T15:23:20.650Z,69.77
2022-08-22T15:26:17.970Z,70.33
2022-08-22T15:29:10.833Z,70.02
2022-08-22T15:32:03.317Z,71.39
2022-08-22T15:34:53.552Z,71.74
2022-08-22T15:37:57.596Z,71.80
2022-08-22T15:40:47.069Z,71.87
2022-08-22T15:43:37.680Z,72.21
2022-08-22T15:46:32.496Z,73.71
2022-08-22T15:49:28.616Z,73.18
2022-08-22T15:52:25.878Z,73.45
2022-08-22T15:55:22.257Z,75.30
2022-08-22T15:58:14.735Z,77.52
2022-08-22T16:01:18.832Z,78.67
2022-08-22T16:04:15.942Z,81.47
2022-08-22T16:07:23.149Z,83.07
2022-08-22T16:10:28.786Z,85.53
2022-08-22T16:13:38.022Z,88.03
2022-08-22T16:17:03.520Z,88.60
2022-08-22T16:20:31.526Z,87.61
2022-08-22T16:23:20.052Z,87.52
2022-08-22T16:26:15.327Z,88.19
2022-08-22T16:29:08.836Z,90.83
2022-08-22T16:32:01.588Z,90.04
2022-08-22T16:34:50.444Z,95.04
2022-08-22T16:37:48.875Z,92.38
2022-08-22T16:40:48.697Z,93.59
2022-08-22T16:43:37.424Z,96.09
2022-08-22T16:46:46.295Z,95.92
2022-08-22T16:49:40.256Z,98.02
2022-08-22T16:52:57.733Z,97.59
2022-08-22T16:56:12.482Z,99.30
2022-08-22T16:59:23.412Z,99.77
2022-08-22T17:02:26.820Z,96.08
2022-08-22T17:05:29.848Z,97.89
2022-08-22T17:08:44.737Z,99.70
2022-08-22T17:11:47.339Z,100.00
2022-08-22T17:14:43.772Z,100.00
2022-08-22T17:17:40.574Z,100.00
2022-08-22T17:20:40.592Z,99.31
2022-08-22T17:23:38.014Z,100.00
2022-08-22T17:26:38.741Z,100.00
2022-08-22T17:29:41.404Z,100.00
2022-08-22T17:32:38.311Z,100.00
2022-08-22T17:35:45.256Z,100.00
2022-08-22T17:38:46.513Z,100.00
2022-08-22T17:41:41.516Z,100.00
2022-08-22T17:44:39.843Z,100.00
2022-08-22T17:47:33.376Z,100.00
2022-08-22T17:50:28.241Z,100.00
2022-08-22T17:53:33.719Z,100.00
2022-08-22T17:56:27.495Z,100.00
2022-08-22T17:59:21.930Z,100.00
2022-08-22T18:02:16.492Z,100.00
2022-08-22T18:05:12.498Z,100.00
2022-08-22T18:08:08.761Z,100.00
2022-08-22T18:11:04.448Z,98.52
2022-08-22T18:13:58.975Z,97.78
2022-08-22T18:16:56.566Z,97.77
2022-08-22T18:19:55.219Z,96.99
2022-08-22T18:22:49.905Z,96.60
2022-08-22T18:25:43.213Z,96.63
2022-08-22T18:28:41.925Z,99.27
2022-08-22T18:31:46.507Z,100.00
2022-08-22T18:34:41.285Z,100.00
2022-08-22T18:37:49.477Z,100.00
2022-08-22T18:40:49.996Z,99.84
2022-08-22T18:43:42.028Z,100.00
2022-08-22T18:46:40.834Z,100.00
2022-08-22T18:49:45.714Z,99.33
2022-08-22T18:52:40.287Z,98.43
2022-08-22T18:55:51.202Z,97.78
2022-08-22T18:59:06.001Z,97.47
2022-08-22T19:02:11.478Z,98.38
2022-08-22T19:05:17.622Z,97.57
2022-08-22T19:08:36.807Z,96.53
2022-08-22T19:11:37.489Z,96.25
2022-08-22T19:14:41.863Z,96.10
2022-08-22T19:18:08.199Z,98.15
2022-08-22T19:21:41.077Z,98.88
2022-08-22T19:25:04.598Z,97.88
2022-08-22T19:28:26.501Z,98.11
2022-08-22T19:31:24.720Z,97.96
2022-08-22T19:34:19.428Z,99.90
2022-08-22T19:37:33.017Z,98.44
2022-08-22T19:40:53.385Z,100.00
2022-08-22T19:43:42.308Z,100.00
2022-08-22T19:46:37.852Z,100.00
2022-08-22T19:49:30.977Z,100.00
2022-08-22T19:52:31.317Z,100.00
2022-08-22T19:55:29.305Z,100.00
2022-08-22T19:58:32.812Z,100.00
2022-08-22T20:01:42.956Z,100.00
2022-08-22T20:04:43.098Z,100.00
2022-08-22T20:07:45.398Z,100.00
2022-08-22T20:10:44.378Z,100.00
2022-08-22T20:13:35.378Z,100.00
2022-08-22T20:16:44.622Z,100.00
2022-08-22T20:20:16.505Z,100.00
2022-08-22T20:23:02.023Z,100.00
2022-08-22T20:25:55.660Z,100.00
2022-08-22T20:28:48.964Z,100.00
2022-08-22T20:31:38.458Z,100.00
2022-08-22T20:34:29.705Z,100.00
2022-08-22T20:37:40.399Z,100.00
2022-08-22T20:40:55.097Z,100.00
2022-08-22T20:43:51.565Z,100.00
2022-08-22T20:46:57.686Z,100.00
2022-08-22T20:49:50.186Z,100.00
2022-08-22T20:52:43.782Z,100.00
2022-08-22T20:55:53.822Z,100.00
2022-08-22T20:58:47.142Z,100.00
2022-08-22T21:01:38.698Z,100.00
2022-08-22T21:04:32.915Z,100.00
2022-08-22T21:07:23.847Z,100.00
2022-08-22T21:10:37.554Z,100.00
2022-08-22T21:13:30.430Z,100.00
2022-08-22T21:16:21.746Z,100.00
2022-08-22T21:19:18.348Z,100.00
2022-08-22T21:22:13.299Z,100.00
2022-08-22T21:25:02.178Z,100.00
2022-08-22T21:27:53.491Z,100.00
2022-08-22T21:30:43.325Z,100.00
2022-08-22T21:33:35.891Z,100.00
2022-08-22T21:36:27.958Z,100.00
2022-08-22T21:39:20.482Z,100.00
2022-08-22T21:42:22.695Z,100.00
2022-08-22T21:45:15.229Z,100.00
2022-08-22T21:48:25.544Z,100.00
2022-08-22T21:51:28.266Z,100.00
2022-08-22T21:54:43.613Z,100.00
2022-08-22T21:57:36.759Z,100.00
2022-08-22T22:00:49.907Z,100.00
2022-08-22T22:03:39.846Z,100.00
2022-08-22T22:06:28.666Z,100.00
2022-08-22T22:09:17.078Z,100.00
2022-08-22T22:12:05.636Z,100.00
2022-08-22T22:14:54.172Z,100.00
2022-08-22T22:17:43.501Z,100.00
2022-08-22T22:20:34.052Z,100.00
2022-08-22T22:23:23.306Z,100.00
2022-08-22T22:26:12.289Z,100.00
2022-08-22T22:29:00.652Z,100.00
2022-08-22T22:31:49.230Z,100.00
2022-08-22T22:34:39.217Z,100.00
2022-08-22T22:37:30.356Z,100.00
2022-08-22T22:40:21.959Z,100.00
2022-08-22T22:43:13.949Z,100.00
2022-08-22T22:46:02.344Z,100.00
2022-08-22T22:48:50.938Z,100.00
2022-08-22T22:51:40.692Z,100.00
2022-08-22T22:54:30.534Z,100.00
2022-08-22T22:57:25.453Z,100.00
2022-08-22T23:00:15.666Z,100.00
2022-08-22T23:03:06.965Z,100.00
2022-08-22T23:05:55.430Z,100.00
2022-08-22T23:08:43.983Z,100.00
2022-08-22T23:11:34.048Z,100.00
2022-08-22T23:14:22.652Z,100.00
2022-08-22T23:17:11.016Z,100.00
2022-08-22T23:19:59.348Z,100.00
2022-08-22T23:22:47.812Z,100.00
2022-08-22T23:25:36.200Z,100.00
2022-08-22T23:28:25.988Z,100.00
2022-08-22T23:31:17.203Z,100.00
2022-08-22T23:34:07.881Z,100.00
2022-08-22T23:36:58.430Z,100.00
2022-08-22T23:39:47.268Z,100.00
2022-08-22T23:42:35.904Z,100.00
2022-08-22T23:45:25.785Z,100.00
2022-08-22T23:48:14.203Z,100.00
2022-08-22T23:51:02.577Z,99.80
2022-08-22T23:53:51.631Z,99.72
2022-08-22T23:56:43.634Z,99.79
2022-08-22T23:59:34.294Z,99.76
